Time;durP1;ratioP1;P1;durP2;ratioP2;P2;SDS_P1;SDS_P2;PMS_P1;PMS_P2;Temp;Humidity;BMP_temperature;BMP_pressure;BME280_temperature;BME280_humidity;BME280_pressure;Samples;Min_cycle;Max_cycle;Signal;HPM_P1;HPM_P2
2023/05/10 00:01:46;;;;;;;78.77;22.17;;;14.80;99.90;;;;;;4938023;29;20858;-78
2023/05/10 00:04:12;;;;;;;79.50;25.50;;;14.80;99.90;;;;;;4937928;29;20635;-78
2023/05/10 00:06:40;;;;;;;78.73;24.77;;;14.70;99.90;;;;;;4938032;29;20189;-78
2023/05/10 00:09:06;;;;;;;77.43;25.10;;;14.80;99.90;;;;;;4937764;29;20168;-78
2023/05/10 00:11:32;;;;;;;77.30;23.40;;;14.80;99.90;;;;;;4920374;29;20427;-77
2023/05/10 00:13:57;;;;;;;78.13;24.43;;;14.70;99.90;;;;;;4937636;29;20176;-78
2023/05/10 00:16:23;;;;;;;80.80;27.00;;;14.80;99.90;;;;;;4937419;29;20252;-78
2023/05/10 00:18:49;;;;;;;78.37;26.37;;;14.70;99.90;;;;;;4937655;29;20174;-78
2023/05/10 00:21:14;;;;;;;79.07;26.50;;;14.70;99.90;;;;;;4920412;29;20175;-77
2023/05/10 00:23:40;;;;;;;77.17;23.67;;;14.80;99.90;;;;;;4937558;29;20257;-78
2023/05/10 00:26:06;;;;;;;78.50;25.13;;;14.80;99.90;;;;;;4937687;29;20243;-78
2023/05/10 00:28:31;;;;;;;78.17;25.50;;;14.70;99.90;;;;;;4937471;29;20174;-77
2023/05/10 00:30:57;;;;;;;80.83;26.57;;;14.70;99.90;;;;;;4938710;29;20644;-78
2023/05/10 00:33:23;;;;;;;77.50;24.20;;;14.70;99.90;;;;;;4938451;29;20172;-78
2023/05/10 00:35:48;;;;;;;79.77;25.60;;;14.80;99.90;;;;;;4937696;29;20202;-78
2023/05/10 00:38:14;;;;;;;79.47;25.10;;;14.80;99.90;;;;;;4938045;29;20243;-78
2023/05/10 00:40:40;;;;;;;78.40;23.20;;;14.70;99.90;;;;;;4920987;29;20181;-78
2023/05/10 00:43:06;;;;;;;78.57;23.10;;;14.70;99.90;;;;;;4937834;29;20164;-78
2023/05/10 00:45:33;;;;;;;79.30;23.67;;;14.70;99.90;;;;;;4937996;29;20415;-78
2023/05/10 00:48:02;;;;;;;79.37;23.37;;;14.60;99.90;;;;;;5405548;23;20222;-79
2023/05/10 00:50:28;;;;;;;80.17;26.77;;;14.70;99.90;;;;;;4995432;28;20401;-78
2023/05/10 00:52:54;;;;;;;82.20;27.10;;;14.70;99.90;;;;;;4978242;28;20411;-78
2023/05/10 00:55:20;;;;;;;80.50;28.37;;;14.80;99.90;;;;;;4995528;28;20933;-78
2023/05/10 00:57:47;;;;;;;84.30;27.27;;;14.80;99.90;;;;;;4977958;28;20410;-78
2023/05/10 01:00:17;;;;;;;79.93;24.30;;;14.80;99.90;;;;;;4995883;28;20768;-78
2023/05/10 01:02:46;;;;;;;80.17;24.87;;;14.70;99.90;;;;;;4978468;28;21005;-78
2023/05/10 01:05:12;;;;;;;82.60;26.97;;;14.70;99.90;;;;;;4995757;28;20407;-78
2023/05/10 01:07:39;;;;;;;82.30;25.90;;;14.70;99.90;;;;;;4995568;28;20422;-79
2023/05/10 01:10:06;;;;;;;83.70;24.90;;;14.70;99.90;;;;;;4995742;28;20452;-78
2023/05/10 01:12:34;;;;;;;79.17;23.43;;;14.70;99.90;;;;;;4995876;28;20442;-79
2023/05/10 01:15:01;;;;;;;83.37;26.40;;;14.60;99.90;;;;;;4995678;28;20442;-78
2023/05/10 01:17:27;;;;;;;81.83;27.00;;;14.70;99.90;;;;;;4995673;28;20425;-78
2023/05/10 01:19:53;;;;;;;81.00;25.93;;;14.70;99.90;;;;;;4996165;28;20442;-78
2023/05/10 01:22:37;;;;;;;81.47;25.57;;;14.70;99.90;;;;;;4995815;28;20406;-79
2023/05/10 01:25:56;;;;;;;80.93;26.07;;;14.70;99.90;;;;;;4995946;28;20389;-78
2023/05/10 01:28:52;;;;;;;79.20;20.83;;;14.70;99.90;;;;;;4935872;29;20416;-78
2023/05/10 01:31:39;;;;;;;80.63;23.07;;;14.70;99.90;;;;;;4920165;29;20420;-78
2023/05/10 01:34:20;;;;;;;80.00;23.30;;;14.70;99.90;;;;;;4990602;28;20494;-78
2023/05/10 01:36:55;;;;;;;78.47;22.23;;;14.70;99.90;;;;;;4995958;28;20917;-78
2023/05/10 01:39:23;;;;;;;80.60;25.30;;;14.70;99.90;;;;;;4996961;28;20558;-79
2023/05/10 01:41:58;;;;;;;79.23;23.60;;;14.70;99.90;;;;;;4995785;28;20408;-78
2023/05/10 01:44:37;;;;;;;78.67;21.50;;;14.70;99.90;;;;;;4996053;28;20432;-78
2023/05/10 01:47:35;;;;;;;86.47;22.13;;;14.80;99.90;;;;;;4996022;28;20433;-79
2023/05/10 01:50:03;;;;;;;78.43;22.43;;;14.70;99.90;;;;;;4993198;28;20463;-78
2023/05/10 01:52:37;;;;;;;78.00;22.90;;;14.70;99.90;;;;;;4995249;28;20408;-78
2023/05/10 01:55:07;;;;;;;77.80;21.73;;;14.70;99.90;;;;;;4994334;28;20932;-78
2023/05/10 01:57:35;;;;;;;77.43;21.57;;;14.70;99.90;;;;;;4994762;28;20799;-78
2023/05/10 02:00:04;;;;;;;79.17;25.60;;;14.70;99.90;;;;;;4995964;28;20399;-78
2023/05/10 02:02:33;;;;;;;80.23;24.40;;;14.60;99.90;;;;;;4998203;28;20409;-78
2023/05/10 02:04:59;;;;;;;79.10;24.30;;;14.60;99.90;;;;;;4998382;28;20406;-78
2023/05/10 02:07:28;;;;;;;76.90;23.20;;;14.60;99.90;;;;;;4997907;28;20453;-78
2023/05/10 02:09:55;;;;;;;77.07;24.00;;;14.60;99.90;;;;;;4998067;28;20406;-78
2023/05/10 02:12:23;;;;;;;78.50;22.63;;;14.60;99.90;;;;;;4980470;28;20426;-78
2023/05/10 02:14:52;;;;;;;81.70;21.70;;;14.60;99.90;;;;;;4998222;28;20472;-78
2023/05/10 02:17:19;;;;;;;78.07;23.70;;;14.60;99.90;;;;;;4980943;28;20526;-78
2023/05/10 02:19:47;;;;;;;79.80;25.07;;;14.60;99.90;;;;;;4998254;28;20398;-78
2023/05/10 02:22:13;;;;;;;84.40;25.37;;;14.60;99.90;;;;;;4998464;28;20411;-78
2023/05/10 02:24:40;;;;;;;81.90;27.47;;;14.60;99.90;;;;;;4997872;28;20445;-78
2023/05/10 02:27:06;;;;;;;84.03;27.33;;;14.60;99.90;;;;;;4997652;28;20428;-78
2023/05/10 02:29:33;;;;;;;79.20;22.67;;;14.60;99.90;;;;;;4997863;28;20890;-78
2023/05/10 02:32:00;;;;;;;79.53;25.27;;;14.60;99.90;;;;;;4997407;28;20402;-78
2023/05/10 02:34:27;;;;;;;80.40;25.13;;;14.60;99.90;;;;;;4998094;28;20406;-78
2023/05/10 02:36:54;;;;;;;85.00;25.63;;;14.50;99.90;;;;;;4997446;28;20426;-78
2023/05/10 02:39:21;;;;;;;86.30;32.17;;;14.50;99.90;;;;;;4980183;28;20421;-78
2023/05/10 02:41:49;;;;;;;81.07;28.20;;;14.50;99.90;;;;;;4997595;28;20412;-78
2023/05/10 02:44:17;;;;;;;83.70;31.80;;;14.50;99.90;;;;;;4980766;28;20413;-78
2023/05/10 02:46:43;;;;;;;83.77;32.87;;;14.50;99.90;;;;;;4997519;28;20421;-78
2023/05/10 02:49:09;;;;;;;82.40;30.90;;;14.50;99.90;;;;;;4997242;28;20422;-78
2023/05/10 02:51:37;;;;;;;89.03;28.00;;;14.50;99.90;;;;;;4997395;28;20631;-78
2023/05/10 02:54:11;;;;;;;86.80;29.27;;;14.50;99.90;;;;;;4997436;28;20853;-78
2023/05/10 02:56:42;;;;;;;84.03;27.70;;;14.60;99.90;;;;;;4997745;28;20869;-78
2023/05/10 02:59:10;;;;;;;82.17;29.23;;;14.60;99.90;;;;;;4997686;28;20461;-78
2023/05/10 03:01:36;;;;;;;81.10;31.00;;;14.60;99.90;;;;;;4998379;28;20402;-78
2023/05/10 03:04:02;;;;;;;83.00;27.00;;;14.50;99.90;;;;;;4980469;28;20504;-78
2023/05/10 03:06:28;;;;;;;80.77;25.27;;;14.50;99.90;;;;;;4997333;28;20186;-78
2023/05/10 03:08:54;;;;;;;81.30;26.87;;;14.50;99.90;;;;;;4997812;28;20179;-79
2023/05/10 03:11:35;;;;;;;80.33;25.60;;;14.50;99.90;;;;;;4997712;28;20397;-78
2023/05/10 03:14:16;;;;;;;79.83;24.27;;;14.60;99.90;;;;;;4979724;28;20325;-78
2023/05/10 03:17:02;;;;;;;83.20;29.87;;;14.60;99.90;;;;;;4979856;28;20468;-78
2023/05/10 03:19:50;;;;;;;79.97;30.20;;;14.60;99.90;;;;;;4997813;28;20398;-78
2023/05/10 03:25:05;;;;;;;80.87;30.40;;;14.50;99.90;;;;;;4974804;28;20470;-88
2023/05/10 03:27:45;;;;;;;80.23;27.70;;;14.50;99.90;;;;;;4976361;28;20477;-89
2023/05/10 03:30:19;;;;;;;82.13;29.60;;;14.50;99.90;;;;;;4958606;28;20406;-88
2023/05/10 03:33:03;;;;;;;79.40;29.37;;;14.50;99.90;;;;;;4976670;28;20371;-89
2023/05/10 03:35:37;;;;;;;78.77;26.80;;;14.50;99.90;;;;;;4976188;28;20451;-89
2023/05/10 03:38:06;;;;;;;80.70;28.30;;;14.50;99.90;;;;;;4959373;28;20921;-89
2023/05/10 03:40:36;;;;;;;79.57;28.67;;;14.40;99.90;;;;;;4976037;28;20478;-89
2023/05/10 03:43:19;;;;;;;79.00;25.47;;;14.40;99.90;;;;;;4976178;28;20752;-89
2023/05/10 03:45:45;;;;;;;79.53;22.77;;;14.40;99.90;;;;;;4959129;28;20453;-89
2023/05/10 03:48:13;;;;;;;80.77;27.83;;;14.40;99.90;;;;;;4976421;28;20403;-88
2023/05/10 03:50:59;;;;;;;81.30;31.17;;;14.40;99.90;;;;;;4959062;28;20418;-89
2023/05/10 03:53:29;;;;;;;80.87;24.70;;;14.40;99.90;;;;;;4959443;28;20790;-89
2023/05/10 05:20:39;;;;;;;87.77;26.50;;;14.40;99.90;;;;;;4934964;29;21018;-88
2023/05/10 05:23:25;;;;;;;87.27;24.90;;;14.50;99.90;;;;;;4918391;29;20420;-88
2023/05/10 05:26:56;;;;;;;;;;;;;;;;;;;;;
2023/05/10 05:33:08;;;;;;;88.13;25.23;;;14.40;99.90;;;;;;4858846;29;20468;-88
2023/05/10 05:54:09;;;;;;;;;;;;;;;;;;;;;
2023/05/10 06:00:44;;;;;;;;;;;;;;;;;;;;;
2023/05/10 06:07:11;;;;;;;83.13;21.00;;;14.70;99.90;;;;;;4818414;29;20434;-88
2023/05/10 06:13:44;;;;;;;83.10;21.60;;;14.80;99.90;;;;;;4825998;29;20470;-88
2023/05/10 06:17:07;;;;;;;;;;;;;;;;;;;;;
2023/05/10 06:19:57;;;;;;;;;;;;;;;;;;;;;
2023/05/10 06:23:39;;;;;;;86.13;24.83;;;14.90;99.90;;;;;;4898854;29;20429;-87
2023/05/10 06:40:39;;;;;;;88.87;24.07;;;14.70;99.90;;;;;;4788572;29;20440;-88
2023/05/10 06:46:58;;;;;;;88.37;21.27;;;14.60;99.90;;;;;;4850420;29;20431;-88
2023/05/10 07:03:44;;;;;;;88.73;19.97;;;14.80;99.90;;;;;;4842249;29;20455;-88
2023/05/10 07:18:12;;;;;;;;;;;;;;;;;;;;;
2023/05/10 07:21:43;;;;;;;84.73;20.87;;;14.80;99.90;;;;;;4763474;30;20828;-89
2023/05/10 07:29:04;;;;;;;;;;;;;;;;;;;;;
2023/05/10 09:23:46;;;;;;;71.80;13.70;;;16.80;99.90;;;;;;4285517;23;20529;-79
2023/05/10 09:26:12;;;;;;;71.50;7.67;;;16.90;99.90;;;;;;4917973;29;20456;-79
2023/05/10 09:28:55;;;;;;;66.87;4.60;;;16.80;99.90;;;;;;4919663;29;20396;-79
2023/05/10 09:31:22;;;;;;;67.07;5.07;;;16.80;99.90;;;;;;4919109;29;20398;-79
2023/05/10 09:33:49;;;;;;;68.43;5.67;;;16.70;99.90;;;;;;4919725;29;20403;-79
2023/05/10 09:36:15;;;;;;;68.07;5.70;;;16.60;99.90;;;;;;4919449;29;20536;-79
2023/05/10 09:38:47;;;;;;;75.27;6.87;;;16.40;99.90;;;;;;4919440;29;20408;-79
2023/05/10 09:41:24;;;;;;;75.60;7.30;;;16.30;99.90;;;;;;4903048;29;20812;-79
2023/05/10 09:43:54;;;;;;;75.00;7.73;;;16.20;99.90;;;;;;4902610;29;20410;-79
2023/05/10 09:46:20;;;;;;;72.00;8.10;;;16.20;99.90;;;;;;4919727;29;20445;-81
2023/05/10 09:48:47;;;;;;;76.90;8.87;;;16.10;99.90;;;;;;4919786;29;20411;-80
2023/05/10 09:51:24;;;;;;;76.30;10.20;;;16.10;99.90;;;;;;4902575;29;20170;-80
2023/05/10 09:54:14;;;;;;;78.57;11.47;;;16.20;99.90;;;;;;4919484;29;20791;-80
2023/05/10 09:56:40;;;;;;;81.50;15.27;;;16.10;99.90;;;;;;4919409;29;20459;-80
2023/05/10 09:59:29;;;;;;;78.00;17.07;;;16.10;99.90;;;;;;4902556;29;20414;-79
2023/05/10 10:01:59;;;;;;;76.33;11.57;;;16.30;99.90;;;;;;4910704;29;21006;-79
2023/05/10 10:04:31;;;;;;;78.70;9.27;;;16.40;99.90;;;;;;4919568;29;20400;-80
2023/05/10 10:07:04;;;;;;;73.20;8.07;;;16.50;99.90;;;;;;4902690;29;21038;-80
2023/05/10 10:09:31;;;;;;;74.07;9.20;;;16.50;99.90;;;;;;4919851;29;20487;-80
2023/05/10 10:11:56;;;;;;;74.60;8.73;;;16.50;99.90;;;;;;4919664;29;20575;-80
2023/05/10 10:14:25;;;;;;;72.90;8.33;;;16.50;99.90;;;;;;4919712;29;20915;-80
2023/05/10 10:16:51;;;;;;;74.87;8.77;;;16.60;99.90;;;;;;4919546;29;20219;-80
2023/05/10 10:19:19;;;;;;;73.33;9.17;;;16.70;99.90;;;;;;4902694;29;20520;-80
2023/05/10 10:21:45;;;;;;;73.90;9.10;;;16.80;99.90;;;;;;4921538;29;20439;-80
2023/05/10 10:24:10;;;;;;;72.70;9.80;;;17.00;99.90;;;;;;4905713;29;20443;-80
2023/05/10 10:26:42;;;;;;;76.50;10.50;;;17.10;99.90;;;;;;4905997;29;20474;-81
2023/05/10 10:29:20;;;;;;;74.43;10.30;;;17.30;99.90;;;;;;4906342;29;20190;-81
2023/05/10 10:32:32;;;;;;;90.37;11.00;;;17.30;99.90;;;;;;4922550;29;20410;-80
2023/05/10 10:35:04;;;;;;;81.40;13.80;;;17.30;99.90;;;;;;4895732;29;20456;-80
2023/05/10 10:37:46;;;;;;;76.50;12.13;;;17.30;99.90;;;;;;4922575;29;20425;-81
2023/05/10 10:40:26;;;;;;;77.27;12.07;;;17.30;99.90;;;;;;4922634;29;20409;-80
2023/05/10 10:42:56;;;;;;;78.17;12.30;;;17.30;99.90;;;;;;4922912;29;20770;-81
2023/05/10 10:45:22;;;;;;;77.60;12.33;;;17.40;99.90;;;;;;4923398;29;20776;-80
2023/05/10 10:47:49;;;;;;;75.27;8.80;;;17.40;99.90;;;;;;4923433;29;20420;-81
2023/05/10 10:50:18;;;;;;;75.83;8.97;;;17.50;99.90;;;;;;4906623;29;20409;-81
2023/05/10 10:52:44;;;;;;;74.40;9.27;;;17.40;99.90;;;;;;4922792;29;20410;-81
2023/05/10 10:55:13;;;;;;;70.77;7.90;;;17.30;99.90;;;;;;4922987;29;20499;-81
2023/05/10 10:58:04;;;;;;;73.07;7.50;;;17.50;99.90;;;;;;4922653;29;20441;-81
2023/05/10 11:00:31;;;;;;;70.27;6.60;;;17.40;99.90;;;;;;4922841;29;20516;-81
2023/05/10 11:02:56;;;;;;;76.27;8.10;;;17.50;99.90;;;;;;4922461;29;20409;-81
2023/05/10 11:05:42;;;;;;;71.00;8.17;;;17.50;99.90;;;;;;4922037;29;20460;-80
2023/05/10 11:08:12;;;;;;;73.30;6.97;;;17.60;99.90;;;;;;4922303;29;20712;-80
2023/05/10 11:10:39;;;;;;;71.67;7.23;;;17.60;99.90;;;;;;4905432;29;20790;-80
2023/05/10 11:13:05;;;;;;;69.43;8.60;;;17.60;99.90;;;;;;4921948;29;20414;-81
2023/05/10 11:15:38;;;;;;;68.10;6.80;;;17.50;99.90;;;;;;4922154;29;20452;-81
2023/05/10 11:18:57;;;;;;;72.40;7.07;;;17.60;99.90;;;;;;4922950;29;20418;-81
2023/05/10 11:21:26;;;;;;;69.50;7.77;;;17.60;99.90;;;;;;4864162;29;20396;-81
2023/05/10 11:23:57;;;;;;;68.07;6.87;;;17.60;99.90;;;;;;4864562;29;20488;-81
2023/05/10 11:26:25;;;;;;;68.40;6.57;;;17.50;99.90;;;;;;4900628;29;20440;-81
2023/05/10 11:28:55;;;;;;;72.30;6.60;;;17.50;99.90;;;;;;4905223;29;20418;-80
2023/05/10 11:31:21;;;;;;;68.83;5.17;;;17.70;99.90;;;;;;4904727;29;20413;-81
2023/05/10 11:33:52;;;;;;;69.23;6.27;;;17.70;99.90;;;;;;4922411;29;20973;-81
2023/05/10 11:36:21;;;;;;;67.23;5.90;;;17.60;99.90;;;;;;4921646;29;20832;-81
2023/05/10 11:38:48;;;;;;;68.20;6.97;;;17.80;99.90;;;;;;4921618;29;20780;-80
2023/05/10 11:41:15;;;;;;;68.30;6.40;;;18.00;99.90;;;;;;4922196;29;20468;-81
2023/05/10 11:43:41;;;;;;;66.60;5.10;;;18.20;99.90;;;;;;4921940;29;20453;-81
2023/05/10 11:46:10;;;;;;;66.70;4.70;;;18.30;99.90;;;;;;4922370;29;20426;-80
2023/05/10 11:48:36;;;;;;;66.73;5.03;;;18.30;99.90;;;;;;4922138;29;20409;-81
2023/05/10 11:51:02;;;;;;;66.20;4.73;;;18.20;99.90;;;;;;4921958;29;20441;-81
2023/05/10 11:53:32;;;;;;;65.70;4.33;;;18.10;99.90;;;;;;4921428;29;20413;-81
2023/05/10 11:56:09;;;;;;;65.47;4.30;;;18.00;99.90;;;;;;4905186;29;20457;-81
2023/05/10 11:58:36;;;;;;;68.20;4.00;;;18.10;99.90;;;;;;4905211;29;20417;-81
2023/05/10 12:01:03;;;;;;;66.17;3.63;;;18.00;99.90;;;;;;4922415;29;20413;-81
2023/05/10 12:03:29;;;;;;;65.67;3.60;;;18.10;99.90;;;;;;4921757;29;20409;-81
2023/05/10 12:05:56;;;;;;;64.70;4.10;;;18.30;99.10;;;;;;4904583;29;20520;-80
2023/05/10 12:08:26;;;;;;;65.33;4.00;;;18.50;91.80;;;;;;4922130;29;20765;-81
2023/05/10 12:10:54;;;;;;;66.57;6.90;;;18.80;76.90;;;;;;4922393;29;20386;-81
2023/05/10 12:13:20;;;;;;;67.00;7.67;;;19.10;43.30;;;;;;4922490;29;20413;-81
2023/05/10 12:15:47;;;;;;;69.10;7.20;;;19.40;46.70;;;;;;4904727;29;20461;-81
2023/05/10 12:18:14;;;;;;;68.57;11.07;;;19.60;52.00;;;;;;4921314;29;20438;-80
2023/05/10 12:20:40;;;;;;;69.33;13.67;;;19.80;37.90;;;;;;4921935;29;20406;-81
2023/05/10 12:23:09;;;;;;;68.70;10.50;;;19.80;21.90;;;;;;4921203;29;20429;-80
2023/05/10 12:25:36;;;;;;;65.40;6.03;;;19.80;24.30;;;;;;4921440;29;20418;-80
2023/05/10 12:28:08;;;;;;;65.97;4.90;;;19.70;13.00;;;;;;4921629;29;20809;-81
2023/05/10 12:30:36;;;;;;;65.07;3.50;;;19.70;14.50;;;;;;4904685;29;20414;-81
2023/05/10 12:33:12;;;;;;;64.87;3.60;;;19.80;8.90;;;;;;4921206;29;20436;-81
2023/05/10 12:35:50;;;;;;;64.90;3.00;;;19.70;11.60;;;;;;4921351;29;20429;-80
2023/05/10 12:38:29;;;;;;;65.70;2.80;;;19.80;1.00;;;;;;4921093;29;20420;-81
2023/05/10 12:46:12;;;;;;;64.70;3.73;;;19.90;11.70;;;;;;4980359;23;20855;-81
2023/05/10 12:48:39;;;;;;;64.60;3.23;;;19.90;10.10;;;;;;4902524;29;20442;-81
2023/05/10 12:51:09;;;;;;;64.97;2.90;;;20.00;2.90;;;;;;4902486;29;20403;-80
2023/05/10 12:53:35;;;;;;;66.77;2.90;;;19.90;1.00;;;;;;4885002;29;20421;-80
2023/05/10 12:56:01;;;;;;;64.23;2.80;;;19.90;1.00;;;;;;4902359;29;20454;-80
2023/05/10 12:58:26;;;;;;;65.17;3.03;;;19.90;1.00;;;;;;4905616;29;20414;-80
2023/05/10 13:00:53;;;;;;;66.00;3.40;;;19.90;6.60;;;;;;4902626;29;20186;-80
2023/05/10 13:03:18;;;;;;;65.30;3.43;;;19.90;8.40;;;;;;4901979;29;20406;-80
2023/05/10 13:05:44;;;;;;;64.77;2.87;;;19.90;7.20;;;;;;4884901;29;20448;-80
2023/05/10 13:08:10;;;;;;;64.67;3.03;;;19.70;1.00;;;;;;4902292;29;20245;-80
2023/05/10 13:10:35;;;;;;;65.07;3.00;;;19.70;8.10;;;;;;4901906;29;20177;-80
2023/05/10 13:13:01;;;;;;;65.70;2.80;;;19.60;1.00;;;;;;4902050;29;20539;-80
2023/05/10 13:15:27;;;;;;;65.83;3.13;;;19.50;1.00;;;;;;4901713;29;20278;-80
2023/05/10 13:17:56;;;;;;;66.20;3.37;;;19.40;10.40;;;;;;4902227;29;20618;-80
2023/05/10 13:20:21;;;;;;;64.67;2.90;;;19.40;10.00;;;;;;4902160;29;20166;-80
2023/05/10 13:22:47;;;;;;;64.80;3.63;;;19.30;10.30;;;;;;4901853;29;20977;-80
2023/05/10 13:25:13;;;;;;;64.90;3.43;;;19.40;18.20;;;;;;4902052;29;20672;-80
2023/05/10 13:27:43;;;;;;;65.87;3.97;;;19.50;16.10;;;;;;4901483;29;20736;-80
2023/05/10 13:30:11;;;;;;;65.60;2.90;;;19.70;18.40;;;;;;4902065;29;20182;-80
2023/05/10 13:32:36;;;;;;;66.40;2.80;;;19.80;8.80;;;;;;4884559;29;20958;-80
2023/05/10 13:35:03;;;;;;;64.20;2.57;;;19.80;5.00;;;;;;4901605;29;20453;-80
2023/05/10 13:37:29;;;;;;;64.13;2.50;;;19.70;1.00;;;;;;4901336;29;20190;-80
2023/05/10 13:39:55;;;;;;;64.43;2.60;;;19.70;3.10;;;;;;4901426;29;20414;-80
2023/05/10 13:42:23;;;;;;;65.37;2.70;;;20.00;1.00;;;;;;4885291;29;20538;-80
2023/05/10 13:44:49;;;;;;;65.73;3.30;;;20.10;1.00;;;;;;4900977;29;20782;-79
2023/05/10 13:47:15;;;;;;;65.03;3.57;;;20.10;1.00;;;;;;4883843;29;20450;-79
2023/05/10 13:49:41;;;;;;;64.90;4.00;;;20.30;1.00;;;;;;4900575;29;20426;-79
2023/05/10 13:52:07;;;;;;;66.10;3.83;;;20.60;1.00;;;;;;4900476;29;20748;-79
2023/05/10 13:54:34;;;;;;;67.00;5.67;;;20.80;1.00;;;;;;4901153;29;20398;-79
2023/05/10 13:57:03;;;;;;;66.60;4.90;;;21.00;1.00;;;;;;4887269;29;20535;-79
2023/05/10 13:59:31;;;;;;;66.97;7.07;;;21.10;1.00;;;;;;4904243;29;20400;-79
2023/05/10 14:01:57;;;;;;;67.27;8.00;;;21.40;1.00;;;;;;4903948;29;20403;-79
2023/05/10 14:04:22;;;;;;;65.80;5.43;;;21.60;1.00;;;;;;4886404;29;20416;-80
2023/05/10 14:06:48;;;;;;;67.00;3.57;;;21.90;1.00;;;;;;4903841;29;20432;-80
2023/05/10 14:09:14;;;;;;;65.57;2.80;;;22.00;1.00;;;;;;4903848;29;20630;-80
2023/05/10 14:11:43;;;;;;;65.07;2.70;;;22.10;1.00;;;;;;4903619;29;20590;-80
2023/05/10 14:14:09;;;;;;;65.23;2.40;;;22.00;1.00;;;;;;4886954;29;20174;-80
2023/05/10 14:16:35;;;;;;;65.80;2.80;;;21.70;1.00;;;;;;4903281;29;20853;-80
2023/05/10 14:19:01;;;;;;;70.07;3.10;;;21.50;1.00;;;;;;4886890;29;20459;-80
2023/05/10 14:21:29;;;;;;;65.13;3.03;;;21.30;1.00;;;;;;4903551;29;20638;-80
2023/05/10 14:23:57;;;;;;;66.00;3.10;;;21.20;1.00;;;;;;4903317;29;20413;-79
2023/05/10 14:26:23;;;;;;;65.40;2.90;;;21.30;1.00;;;;;;4902954;29;20441;-79
2023/05/10 14:28:48;;;;;;;64.97;3.30;;;21.20;1.00;;;;;;4902831;29;20411;-80
2023/05/10 14:31:16;;;;;;;66.37;3.17;;;21.40;1.00;;;;;;4906534;29;20172;-80
2023/05/10 14:33:42;;;;;;;66.40;4.00;;;21.60;1.00;;;;;;4904512;29;20170;-79
2023/05/10 14:36:09;;;;;;;66.43;3.63;;;21.70;1.00;;;;;;4904129;29;20464;-80
2023/05/10 14:38:34;;;;;;;65.60;3.10;;;21.90;1.00;;;;;;4904024;29;20414;-80
2023/05/10 14:41:00;;;;;;;65.50;3.27;;;21.90;1.00;;;;;;4903680;29;20413;-80
2023/05/10 14:43:27;;;;;;;67.77;3.27;;;22.10;1.00;;;;;;4903900;29;20216;-80
2023/05/10 14:45:52;;;;;;;66.50;3.60;;;22.10;1.00;;;;;;4903247;29;20637;-80
2023/05/10 14:48:18;;;;;;;66.70;3.00;;;22.10;1.00;;;;;;4903863;29;20448;-80
2023/05/10 14:50:45;;;;;;;66.83;3.10;;;22.00;1.00;;;;;;4886298;29;20177;-80
2023/05/10 14:53:13;;;;;;;66.00;3.20;;;21.80;1.00;;;;;;4903664;29;20651;-80
2023/05/10 14:55:39;;;;;;;66.63;4.47;;;21.60;1.00;;;;;;4903028;29;20445;-80
2023/05/10 14:58:04;;;;;;;66.07;3.63;;;21.50;1.00;;;;;;4903502;29;20515;-80
2023/05/10 15:00:31;;;;;;;65.50;3.40;;;21.30;1.00;;;;;;4886984;29;20698;-80
2023/05/10 15:02:57;;;;;;;66.30;3.40;;;21.20;1.00;;;;;;4886566;29;20181;-80
2023/05/10 15:05:23;;;;;;;67.03;3.13;;;21.10;1.00;;;;;;4886256;29;20418;-80
2023/05/10 15:07:49;;;;;;;65.90;4.03;;;21.10;1.00;;;;;;4902713;29;20945;-80
2023/05/10 15:10:15;;;;;;;66.20;3.93;;;21.10;1.00;;;;;;4902986;29;20492;-80
2023/05/10 15:12:43;;;;;;;67.03;3.40;;;21.00;1.00;;;;;;4885918;29;20263;-80
2023/05/10 15:15:09;;;;;;;66.63;3.40;;;20.80;1.00;;;;;;4903032;29;20679;-80
2023/05/10 15:17:34;;;;;;;65.67;4.10;;;20.70;1.00;;;;;;4902898;29;20507;-80
2023/05/10 15:20:03;;;;;;;65.87;3.50;;;20.70;1.00;;;;;;4901994;29;20583;-79
2023/05/10 15:24:59;;;;;;;65.90;3.60;;;20.70;1.00;;;;;;4900113;29;20455;-87
2023/05/10 15:27:26;;;;;;;66.90;3.37;;;20.60;1.00;;;;;;4883045;29;20441;-87
2023/05/10 15:29:52;;;;;;;65.60;3.50;;;20.90;1.00;;;;;;4900354;29;20392;-87
2023/05/10 15:32:18;;;;;;;66.57;3.40;;;21.30;1.00;;;;;;4883995;29;20779;-87
2023/05/10 15:34:44;;;;;;;69.67;3.57;;;21.40;1.00;;;;;;4901809;29;20399;-88
2023/05/10 15:37:12;;;;;;;65.20;3.77;;;21.20;1.00;;;;;;4884480;29;20203;-87
2023/05/10 15:39:38;;;;;;;68.30;3.83;;;21.20;1.00;;;;;;4900400;29;20929;-87
2023/05/10 15:42:04;;;;;;;66.80;3.40;;;21.10;1.00;;;;;;4900840;29;20425;-87
2023/05/10 15:44:29;;;;;;;65.57;3.33;;;21.40;1.00;;;;;;4883367;29;20177;-87
2023/05/10 15:46:55;;;;;;;65.93;4.50;;;21.50;1.00;;;;;;4901038;29;20313;-87
2023/05/10 15:49:24;;;;;;;65.63;3.80;;;21.70;1.00;;;;;;4884687;29;20217;-87
2023/05/10 15:51:50;;;;;;;67.27;3.63;;;21.80;1.00;;;;;;4883329;29;20173;-87
2023/05/10 15:54:15;;;;;;;67.40;3.60;;;21.70;1.00;;;;;;4899943;29;20456;-88
2023/05/10 15:56:41;;;;;;;66.17;4.07;;;21.90;1.00;;;;;;4900072;29;20221;-87
2023/05/10 15:59:09;;;;;;;67.30;3.60;;;21.70;1.00;;;;;;4901376;29;20201;-87
2023/05/10 16:01:35;;;;;;;66.37;3.43;;;21.50;1.00;;;;;;4900923;29;20554;-87
2023/05/10 16:04:00;;;;;;;66.90;3.70;;;21.20;1.00;;;;;;4884309;29;20549;-87
2023/05/10 16:06:26;;;;;;;65.87;3.43;;;21.00;1.00;;;;;;4884178;29;20256;-87
2023/05/10 16:08:52;;;;;;;66.50;3.97;;;20.70;1.00;;;;;;4884254;29;20176;-87
2023/05/10 16:11:18;;;;;;;67.00;3.97;;;20.80;1.00;;;;;;4900950;29;20632;-87
2023/05/10 16:13:44;;;;;;;66.30;3.77;;;20.70;1.00;;;;;;4900199;29;20169;-87
2023/05/10 16:16:09;;;;;;;72.13;4.63;;;20.70;1.00;;;;;;4900240;29;20488;-88
2023/05/10 16:18:35;;;;;;;66.97;3.53;;;20.70;1.00;;;;;;4883927;29;20187;-87
2023/05/10 16:21:01;;;;;;;66.93;3.53;;;20.80;1.00;;;;;;4884548;29;20207;-87
2023/05/10 16:23:45;;;;;;;66.60;3.97;;;21.00;1.00;;;;;;4884205;29;20483;-87
2023/05/10 16:26:11;;;;;;;68.83;4.27;;;21.30;1.00;;;;;;4884417;29;20211;-87
2023/05/10 16:28:38;;;;;;;66.90;4.47;;;21.40;1.00;;;;;;4884231;29;20920;-87
2023/05/10 16:31:04;;;;;;;70.23;3.87;;;21.20;1.00;;;;;;4900457;29;20892;-87
2023/05/10 16:33:29;;;;;;;67.07;4.30;;;21.00;1.00;;;;;;4900193;29;20412;-87
2023/05/10 16:35:55;;;;;;;67.40;4.30;;;20.70;1.00;;;;;;4882949;29;20198;-87
2023/05/10 16:38:21;;;;;;;67.70;5.33;;;20.40;1.00;;;;;;4900914;29;20196;-87
2023/05/10 16:40:47;;;;;;;68.00;5.00;;;20.00;1.00;;;;;;4901267;29;20177;-88
2023/05/10 16:43:13;;;;;;;65.97;4.80;;;19.70;1.00;;;;;;4901278;29;20414;-87
2023/05/10 16:45:38;;;;;;;67.37;5.60;;;19.60;1.00;;;;;;4901057;29;20450;-87
2023/05/10 16:48:05;;;;;;;66.77;6.70;;;19.50;1.00;;;;;;4900438;29;20250;-88
2023/05/10 16:50:31;;;;;;;67.30;6.63;;;19.40;1.00;;;;;;4883802;29;20170;-87
2023/05/10 16:52:56;;;;;;;68.13;7.73;;;19.40;1.00;;;;;;4883602;29;20414;-87
2023/05/10 16:55:22;;;;;;;68.70;7.97;;;19.40;1.00;;;;;;4900446;29;20906;-87
2023/05/10 16:57:48;;;;;;;68.87;7.13;;;19.50;1.00;;;;;;4898630;29;20511;-87
2023/05/10 17:00:15;;;;;;;70.23;6.30;;;19.70;2.00;;;;;;4882565;29;20638;-87
2023/05/10 17:02:41;;;;;;;67.10;5.13;;;19.90;2.70;;;;;;4898784;29;20457;-87
2023/05/10 17:05:07;;;;;;;65.57;4.70;;;19.90;8.40;;;;;;4899096;29;20454;-86
2023/05/10 17:07:33;;;;;;;67.87;4.17;;;19.90;9.60;;;;;;4881541;29;20486;-87
2023/05/10 17:09:59;;;;;;;67.40;6.23;;;19.90;9.10;;;;;;4898864;29;20406;-87
2023/05/10 17:12:25;;;;;;;67.90;7.10;;;20.00;1.40;;;;;;4899541;29;20413;-87
2023/05/10 17:14:50;;;;;;;67.47;6.80;;;20.10;1.00;;;;;;4882704;29;20786;-87
2023/05/10 17:17:18;;;;;;;67.57;6.13;;;20.00;1.00;;;;;;4898511;29;20201;-87
2023/05/10 17:19:44;;;;;;;67.00;6.00;;;19.80;1.00;;;;;;4898356;29;20221;-87
2023/05/10 17:22:19;;;;;;;66.60;4.70;;;19.80;2.60;;;;;;4898766;29;20883;-87
2023/05/10 17:24:47;;;;;;;66.40;5.53;;;19.70;8.10;;;;;;4881558;29;20434;-87
2023/05/10 17:27:13;;;;;;;66.27;6.30;;;19.70;3.70;;;;;;4898048;29;20430;-87
2023/05/10 17:29:50;;;;;;;66.17;5.90;;;19.60;6.40;;;;;;4882807;29;20418;-87
2023/05/10 17:32:26;;;;;;;66.57;5.07;;;19.40;7.00;;;;;;4902794;29;20869;-87
2023/05/10 17:34:54;;;;;;;67.97;5.93;;;19.30;15.20;;;;;;4902254;29;20529;-87
2023/05/10 17:37:52;;;;;;;66.67;6.47;;;19.20;11.60;;;;;;4902886;29;20513;-91
2023/05/10 17:40:43;;;;;;;66.00;5.30;;;19.00;15.30;;;;;;4885346;29;20419;-89
2023/05/10 17:46:39;;;;;;;67.17;3.87;;;18.90;13.90;;;;;;4859847;29;21039;-88
2023/05/10 17:49:14;;;;;;;69.57;3.40;;;18.80;17.90;;;;;;4885410;29;20418;-87
2023/05/10 17:52:22;;;;;;;65.90;3.40;;;18.80;21.50;;;;;;4902265;29;20445;-89
2023/05/10 17:54:51;;;;;;;66.47;3.40;;;18.70;20.20;;;;;;4902239;29;20566;-88
2023/05/10 17:57:22;;;;;;;65.77;3.00;;;18.60;21.50;;;;;;4885123;29;20496;-88